JBU1587 KJFK-TNCM
Flight info
| Callsign | JBU1587 |
|---|---|
| Flight time | 3h 35m |
| Altitude | 35000 |
| Route | SHIPP Y492 SQUAD/M079F350 DCT DARUX L456 HANCY/N0467F350 L456 THANK DCT SLUGO |
| Aircraft | A320/M-SDE3FGHIRWY/LB1 |
Departure
| Time | 2026-05-04 20:39 |
|---|---|
| Airport | John F. Kennedy International Airport (KJFK) |
Arrival
| Time | 2026-05-05 00:14 |
|---|---|
| Airport | Princess Juliana International Airport (TNCM) |
| Time | Latitude | Longitude | Altitude | Speed | Heading |
|---|---|---|---|---|---|
| 2026-05-04 20:15 | 40.64530 | -73.77386 | 23 ft | 0 kts | 357° |
| 2026-05-04 20:30 | 40.64524 | -73.77386 | 22 ft | 2 kts | 357° |
| 2026-05-04 20:30 | 40.64506 | -73.77385 | 25 ft | 3 kts | 5° |
| 2026-05-04 20:30 | 40.64488 | -73.77391 | 26 ft | 3 kts | 40° |
| 2026-05-04 20:31 | 40.64476 | -73.77410 | 25 ft | 3 kts | 65° |
| 2026-05-04 20:31 | 40.64468 | -73.77435 | 25 ft | 3 kts | 63° |
| 2026-05-04 20:31 | 40.64458 | -73.77455 | 25 ft | 3 kts | 32° |
| 2026-05-04 20:31 | 40.64448 | -73.77463 | 27 ft | 0 kts | 30° |
| 2026-05-04 20:33 | 40.64451 | -73.77461 | 23 ft | 2 kts | 30° |
| 2026-05-04 20:33 | 40.64458 | -73.77436 | 27 ft | 3 kts | 115° |
| 2026-05-04 20:34 | 40.64442 | -73.77398 | 24 ft | 6 kts | 116° |
| 2026-05-04 20:34 | 40.64434 | -73.77276 | 23 ft | 19 kts | 87° |
| 2026-05-04 20:34 | 40.64441 | -73.77217 | 22 ft | 6 kts | 72° |
| 2026-05-04 20:34 | 40.64442 | -73.77148 | 23 ft | 8 kts | 98° |
| 2026-05-04 20:35 | 40.64426 | -73.77064 | 21 ft | 11 kts | 102° |
| 2026-05-04 20:35 | 40.64476 | -73.76994 | 19 ft | 14 kts | 7° |
| 2026-05-04 20:35 | 40.64566 | -73.76943 | 19 ft | 15 kts | 30° |
| 2026-05-04 20:35 | 40.64660 | -73.76871 | 19 ft | 16 kts | 30° |
| 2026-05-04 20:36 | 40.64759 | -73.76791 | 20 ft | 17 kts | 32° |
| 2026-05-04 20:36 | 40.64856 | -73.76716 | 23 ft | 16 kts | 31° |
| 2026-05-04 20:36 | 40.64954 | -73.76641 | 21 ft | 17 kts | 30° |
| 2026-05-04 20:36 | 40.65055 | -73.76561 | 21 ft | 17 kts | 31° |
| 2026-05-04 20:37 | 40.65086 | -73.76441 | 23 ft | 16 kts | 118° |
| 2026-05-04 20:37 | 40.65002 | -73.76373 | 22 ft | 15 kts | 199° |
| 2026-05-04 20:37 | 40.64985 | -73.76384 | 22 ft | 2 kts | 209° |
| 2026-05-04 20:37 | 40.64975 | -73.76392 | 22 ft | 0 kts | 210° |
| 2026-05-04 20:38 | 40.64973 | -73.76394 | 22 ft | 3 kts | 210° |
| 2026-05-04 20:38 | 40.64795 | -73.76531 | 22 ft | 61 kts | 211° |
| 2026-05-04 20:38 | 40.64266 | -73.76945 | 22 ft | 113 kts | 210° |
| 2026-05-04 20:39 | 40.63462 | -73.77566 | 33 ft | 153 kts | 211° |
| 2026-05-04 20:39 | 40.62538 | -73.78263 | 548 ft | 152 kts | 205° |
| 2026-05-04 20:39 | 40.61527 | -73.78698 | 1128 ft | 157 kts | 184° |
| 2026-05-04 20:39 | 40.60453 | -73.78235 | 1416 ft | 180 kts | 141° |
| 2026-05-04 20:40 | 40.59653 | -73.76829 | 1608 ft | 205 kts | 128° |
| 2026-05-04 20:40 | 40.58820 | -73.75175 | 1815 ft | 229 kts | 127° |
| 2026-05-04 20:40 | 40.57887 | -73.73326 | 2134 ft | 253 kts | 127° |
| 2026-05-04 20:40 | 40.56885 | -73.71337 | 2655 ft | 266 kts | 127° |
| 2026-05-04 20:41 | 40.55847 | -73.69278 | 3346 ft | 273 kts | 127° |
| 2026-05-04 20:41 | 40.54789 | -73.67184 | 4109 ft | 277 kts | 127° |
| 2026-05-04 20:41 | 40.53713 | -73.65067 | 4867 ft | 281 kts | 127° |
| 2026-05-04 20:41 | 40.52608 | -73.62909 | 5542 ft | 287 kts | 127° |
| 2026-05-04 20:42 | 40.51482 | -73.60712 | 6256 ft | 292 kts | 127° |
| 2026-05-04 20:42 | 40.50339 | -73.58480 | 6941 ft | 296 kts | 127° |
| 2026-05-04 20:42 | 40.49181 | -73.56222 | 7645 ft | 299 kts | 127° |
| 2026-05-04 20:42 | 40.48010 | -73.53942 | 8350 ft | 303 kts | 127° |
| 2026-05-04 20:43 | 40.46825 | -73.51637 | 9055 ft | 306 kts | 126° |
| 2026-05-04 20:43 | 40.45630 | -73.49312 | 9748 ft | 309 kts | 126° |
| 2026-05-04 20:43 | 40.44412 | -73.46945 | 10161 ft | 322 kts | 126° |
| 2026-05-04 20:43 | 40.43113 | -73.44429 | 10294 ft | 343 kts | 126° |
| 2026-05-04 20:44 | 40.41753 | -73.41793 | 10412 ft | 363 kts | 126° |
| 2026-05-04 20:44 | 40.40302 | -73.38980 | 10548 ft | 381 kts | 126° |
| 2026-05-04 20:44 | 40.38790 | -73.36051 | 10857 ft | 392 kts | 126° |
| 2026-05-04 20:44 | 40.37252 | -73.33072 | 11353 ft | 397 kts | 126° |
| 2026-05-04 20:45 | 40.35699 | -73.30064 | 11872 ft | 401 kts | 126° |
| 2026-05-04 20:45 | 40.34131 | -73.27025 | 12415 ft | 404 kts | 126° |
| 2026-05-04 20:45 | 40.32552 | -73.23967 | 12945 ft | 407 kts | 126° |
| 2026-05-04 20:45 | 40.30974 | -73.20861 | 13483 ft | 411 kts | 125° |
| 2026-05-04 20:46 | 40.29402 | -73.17714 | 13987 ft | 415 kts | 125° |
| 2026-05-04 20:46 | 40.27824 | -73.14521 | 14474 ft | 418 kts | 124° |
| 2026-05-04 20:46 | 40.26240 | -73.11308 | 14956 ft | 422 kts | 124° |
| 2026-05-04 20:46 | 40.24641 | -73.08073 | 15440 ft | 425 kts | 124° |
| 2026-05-04 20:47 | 40.23024 | -73.04816 | 15924 ft | 428 kts | 124° |
| 2026-05-04 20:47 | 40.21390 | -73.01538 | 16419 ft | 431 kts | 124° |
| 2026-05-04 20:47 | 40.19740 | -72.98243 | 16919 ft | 434 kts | 124° |
| 2026-05-04 20:47 | 40.18076 | -72.94928 | 17418 ft | 437 kts | 125° |
| 2026-05-04 20:48 | 40.16395 | -72.91590 | 17887 ft | 441 kts | 124° |
| 2026-05-04 20:48 | 40.14702 | -72.88231 | 18357 ft | 444 kts | 124° |
| 2026-05-04 20:48 | 40.12995 | -72.84845 | 18770 ft | 447 kts | 124° |
| 2026-05-04 20:48 | 40.11278 | -72.81438 | 19184 ft | 450 kts | 124° |
| 2026-05-04 20:49 | 40.09560 | -72.77997 | 19597 ft | 453 kts | 123° |
| 2026-05-04 20:49 | 40.07898 | -72.74481 | 20007 ft | 456 kts | 122° |
| 2026-05-04 20:49 | 40.06280 | -72.70891 | 20398 ft | 459 kts | 121° |
| 2026-05-04 20:49 | 40.04683 | -72.67256 | 20782 ft | 462 kts | 120° |
| 2026-05-04 20:50 | 40.03086 | -72.63608 | 21131 ft | 465 kts | 120° |
| 2026-05-04 20:50 | 40.01489 | -72.59997 | 21474 ft | 467 kts | 121° |
| 2026-05-04 20:50 | 39.99849 | -72.56334 | 21831 ft | 469 kts | 121° |
| 2026-05-04 20:50 | 39.98186 | -72.52661 | 22169 ft | 471 kts | 121° |
| 2026-05-04 20:51 | 39.96507 | -72.48983 | 22482 ft | 473 kts | 121° |
| 2026-05-04 20:51 | 39.94835 | -72.45276 | 22788 ft | 476 kts | 120° |
| 2026-05-04 20:51 | 39.93176 | -72.41531 | 23104 ft | 478 kts | 120° |
| 2026-05-04 20:51 | 39.91526 | -72.37755 | 23407 ft | 480 kts | 120° |
| 2026-05-04 20:52 | 39.89874 | -72.33961 | 23674 ft | 483 kts | 120° |
| 2026-05-04 20:52 | 39.88211 | -72.30146 | 23928 ft | 485 kts | 120° |
| 2026-05-04 20:52 | 39.86542 | -72.26330 | 24188 ft | 486 kts | 120° |
| 2026-05-04 20:52 | 39.84860 | -72.22508 | 24527 ft | 486 kts | 120° |
| 2026-05-04 20:53 | 39.83173 | -72.18704 | 24902 ft | 485 kts | 120° |
| 2026-05-04 20:53 | 39.81487 | -72.14914 | 25273 ft | 484 kts | 120° |
| 2026-05-04 20:53 | 39.79801 | -72.11124 | 25658 ft | 483 kts | 120° |
| 2026-05-04 20:53 | 39.78120 | -72.07344 | 26037 ft | 483 kts | 120° |
| 2026-05-04 20:54 | 39.76443 | -72.03573 | 26419 ft | 482 kts | 120° |
| 2026-05-04 20:54 | 39.74764 | -71.99799 | 26812 ft | 481 kts | 120° |
| 2026-05-04 20:54 | 39.73078 | -71.96052 | 27202 ft | 481 kts | 120° |
| 2026-05-04 20:54 | 39.71362 | -71.92320 | 27592 ft | 480 kts | 121° |
| 2026-05-04 20:55 | 39.69628 | -71.88612 | 27998 ft | 479 kts | 121° |
| 2026-05-04 20:55 | 39.67891 | -71.84925 | 28397 ft | 478 kts | 121° |
| 2026-05-04 20:55 | 39.66156 | -71.81244 | 28805 ft | 477 kts | 121° |
| 2026-05-04 20:55 | 39.64427 | -71.77569 | 29193 ft | 477 kts | 121° |
| 2026-05-04 20:56 | 39.62703 | -71.73898 | 29590 ft | 476 kts | 120° |
| 2026-05-04 20:56 | 39.61008 | -71.70271 | 29977 ft | 476 kts | 120° |
| 2026-05-04 20:56 | 39.59298 | -71.66606 | 30327 ft | 475 kts | 121° |
| 2026-05-04 20:56 | 39.57581 | -71.62937 | 30663 ft | 475 kts | 121° |
| 2026-05-04 20:57 | 39.55867 | -71.59285 | 31005 ft | 474 kts | 121° |
| 2026-05-04 20:57 | 39.54154 | -71.55638 | 31362 ft | 473 kts | 121° |
| 2026-05-04 20:57 | 39.52442 | -71.52002 | 31737 ft | 472 kts | 122° |
| 2026-05-04 20:57 | 39.50731 | -71.48378 | 32083 ft | 471 kts | 122° |
| 2026-05-04 20:58 | 39.49024 | -71.44764 | 32430 ft | 470 kts | 122° |
| 2026-05-04 20:58 | 39.47319 | -71.41155 | 32768 ft | 470 kts | 123° |
| 2026-05-04 20:58 | 39.45594 | -71.37598 | 33093 ft | 468 kts | 127° |
| 2026-05-04 20:58 | 39.43549 | -71.34354 | 33426 ft | 464 kts | 137° |
| 2026-05-04 20:59 | 39.41159 | -71.31582 | 33748 ft | 459 kts | 147° |
| 2026-05-04 20:59 | 39.38503 | -71.29350 | 34060 ft | 453 kts | 156° |
| 2026-05-04 20:59 | 39.35665 | -71.27672 | 34333 ft | 446 kts | 163° |
| 2026-05-04 20:59 | 39.32791 | -71.26188 | 34606 ft | 444 kts | 163° |
| 2026-05-04 21:00 | 39.29926 | -71.24703 | 34832 ft | 444 kts | 163° |
| 2026-05-04 21:00 | 39.27060 | -71.23207 | 35009 ft | 445 kts | 163° |
| 2026-05-04 21:00 | 39.21270 | -71.20193 | 35061 ft | 453 kts | 163° |
| 2026-05-04 21:01 | 39.15375 | -71.17144 | 35067 ft | 458 kts | 163° |
| 2026-05-04 21:01 | 39.09452 | -71.14068 | 35074 ft | 459 kts | 163° |
| 2026-05-04 21:02 | 39.03519 | -71.10994 | 35071 ft | 459 kts | 163° |
| 2026-05-04 21:02 | 38.97595 | -71.07932 | 35075 ft | 459 kts | 163° |
| 2026-05-04 21:03 | 38.91704 | -71.04892 | 35074 ft | 459 kts | 163° |
| 2026-05-04 21:03 | 38.85767 | -71.01847 | 35083 ft | 459 kts | 164° |
| 2026-05-04 21:04 | 38.79833 | -70.98804 | 35096 ft | 458 kts | 164° |
| 2026-05-04 21:04 | 38.73915 | -70.95770 | 35101 ft | 458 kts | 164° |
| 2026-05-04 21:05 | 38.68000 | -70.92743 | 35097 ft | 458 kts | 164° |
| 2026-05-04 21:05 | 38.62086 | -70.89722 | 35088 ft | 457 kts | 165° |
| 2026-05-04 21:06 | 38.56186 | -70.86714 | 35108 ft | 456 kts | 165° |
| 2026-05-04 21:06 | 38.50302 | -70.83724 | 35121 ft | 454 kts | 165° |
| 2026-05-04 21:07 | 38.44431 | -70.80744 | 35122 ft | 454 kts | 165° |
| 2026-05-04 21:07 | 38.38570 | -70.77772 | 35105 ft | 453 kts | 166° |
| 2026-05-04 21:08 | 38.32714 | -70.74810 | 35108 ft | 453 kts | 166° |
| 2026-05-04 21:08 | 38.26889 | -70.71868 | 35114 ft | 453 kts | 166° |
| 2026-05-04 21:09 | 38.21033 | -70.68913 | 35114 ft | 453 kts | 166° |
| 2026-05-04 21:09 | 38.15176 | -70.65956 | 35087 ft | 453 kts | 167° |
| 2026-05-04 21:10 | 38.10259 | -70.63490 | 35097 ft | 453 kts | 167° |
| 2026-05-04 21:10 | 38.04389 | -70.60551 | 35108 ft | 454 kts | 167° |
| 2026-05-04 21:11 | 37.98557 | -70.57582 | 35112 ft | 456 kts | 165° |
| 2026-05-04 21:11 | 37.92792 | -70.54094 | 35097 ft | 461 kts | 161° |
| 2026-05-04 21:12 | 37.87093 | -70.50325 | 35091 ft | 462 kts | 161° |
| 2026-05-04 21:12 | 37.81368 | -70.46607 | 35110 ft | 462 kts | 162° |
| 2026-05-04 21:13 | 37.75604 | -70.43006 | 35114 ft | 462 kts | 163° |
| 2026-05-04 21:13 | 37.69823 | -70.39440 | 35122 ft | 462 kts | 162° |
| 2026-05-04 21:14 | 37.64037 | -70.35847 | 35088 ft | 463 kts | 163° |
| 2026-05-04 21:14 | 37.58247 | -70.32224 | 35103 ft | 465 kts | 162° |
| 2026-05-04 21:15 | 37.52439 | -70.28605 | 35118 ft | 465 kts | 163° |
| 2026-05-04 21:15 | 37.46629 | -70.25002 | 35128 ft | 466 kts | 163° |
| 2026-05-04 21:16 | 37.40850 | -70.21424 | 35112 ft | 466 kts | 163° |
| 2026-05-04 21:16 | 37.35032 | -70.17824 | 35121 ft | 466 kts | 163° |
| 2026-05-04 21:17 | 37.29221 | -70.14236 | 35156 ft | 465 kts | 163° |
| 2026-05-04 21:17 | 37.23416 | -70.10659 | 35164 ft | 464 kts | 163° |
| 2026-05-04 21:18 | 37.17613 | -70.07086 | 35174 ft | 464 kts | 163° |
| 2026-05-04 21:18 | 37.11832 | -70.03527 | 35163 ft | 462 kts | 163° |
| 2026-05-04 21:19 | 37.06063 | -69.99975 | 35175 ft | 461 kts | 163° |
| 2026-05-04 21:19 | 37.00303 | -69.96458 | 35184 ft | 460 kts | 163° |
| 2026-05-04 21:20 | 36.94544 | -69.92945 | 35181 ft | 460 kts | 163° |
| 2026-05-04 21:20 | 36.88790 | -69.89432 | 35156 ft | 459 kts | 164° |
| 2026-05-04 21:21 | 36.83059 | -69.85934 | 35153 ft | 458 kts | 165° |
| 2026-05-04 21:21 | 36.77348 | -69.82457 | 35183 ft | 455 kts | 165° |
| 2026-05-04 21:22 | 36.71651 | -69.79009 | 35196 ft | 454 kts | 165° |
| 2026-05-04 21:22 | 36.65976 | -69.75568 | 35193 ft | 453 kts | 165° |
| 2026-05-04 21:23 | 36.60307 | -69.72132 | 35194 ft | 453 kts | 165° |
| 2026-05-04 21:23 | 36.54675 | -69.68724 | 35190 ft | 452 kts | 165° |
| 2026-05-04 21:24 | 36.49012 | -69.65311 | 35200 ft | 452 kts | 165° |
| 2026-05-04 21:24 | 36.43338 | -69.61907 | 35195 ft | 452 kts | 165° |
| 2026-05-04 21:25 | 36.37671 | -69.58503 | 35172 ft | 452 kts | 165° |
| 2026-05-04 21:25 | 36.32010 | -69.55100 | 35189 ft | 452 kts | 165° |
| 2026-05-04 21:26 | 36.26355 | -69.51702 | 35184 ft | 451 kts | 166° |
| 2026-05-04 21:26 | 36.20710 | -69.48322 | 35200 ft | 450 kts | 166° |
| 2026-05-04 21:27 | 36.15021 | -69.45306 | 35202 ft | 435 kts | 175° |
| 2026-05-04 21:27 | 36.09200 | -69.43674 | 35176 ft | 426 kts | 179° |
| 2026-05-04 21:28 | 36.03441 | -69.42128 | 35200 ft | 426 kts | 179° |
| 2026-05-04 21:28 | 35.97657 | -69.40559 | 35207 ft | 425 kts | 179° |
| 2026-05-04 21:29 | 35.91880 | -69.38999 | 35211 ft | 425 kts | 179° |
| 2026-05-04 21:29 | 35.86094 | -69.37445 | 35191 ft | 424 kts | 179° |
| 2026-05-04 21:30 | 35.80330 | -69.35904 | 35206 ft | 423 kts | 179° |
| 2026-05-04 21:30 | 35.74577 | -69.34367 | 35213 ft | 423 kts | 179° |
| 2026-05-04 21:31 | 35.65957 | -69.32056 | 35217 ft | 422 kts | 179° |
| 2026-05-04 21:32 | 35.60253 | -69.30528 | 35187 ft | 421 kts | 179° |
| 2026-05-04 21:32 | 35.54530 | -69.29002 | 35207 ft | 421 kts | 179° |
| 2026-05-04 21:33 | 35.48814 | -69.27483 | 35213 ft | 420 kts | 179° |
| 2026-05-04 21:33 | 35.43096 | -69.25965 | 35218 ft | 420 kts | 179° |
| 2026-05-04 21:34 | 35.37382 | -69.24449 | 35187 ft | 419 kts | 179° |
| 2026-05-04 21:34 | 35.31681 | -69.22933 | 35200 ft | 419 kts | 179° |
| 2026-05-04 21:35 | 35.25976 | -69.21428 | 35206 ft | 419 kts | 179° |
| 2026-05-04 21:35 | 35.20270 | -69.19925 | 35209 ft | 419 kts | 179° |
| 2026-05-04 21:36 | 35.14609 | -69.18434 | 35153 ft | 418 kts | 179° |
| 2026-05-04 21:36 | 35.08931 | -69.16932 | 35198 ft | 416 kts | 179° |
| 2026-05-04 21:37 | 35.03270 | -69.15435 | 35215 ft | 415 kts | 179° |
| 2026-05-04 21:37 | 34.97623 | -69.13957 | 35222 ft | 415 kts | 179° |
| 2026-05-04 21:38 | 34.91973 | -69.12472 | 35217 ft | 414 kts | 179° |
| 2026-05-04 21:38 | 34.86371 | -69.10999 | 35200 ft | 412 kts | 179° |
| 2026-05-04 21:39 | 34.80771 | -69.09531 | 35226 ft | 411 kts | 179° |
| 2026-05-04 21:39 | 34.75190 | -69.08072 | 35226 ft | 410 kts | 179° |
| 2026-05-04 21:40 | 34.69626 | -69.06615 | 35222 ft | 409 kts | 179° |
| 2026-05-04 21:40 | 34.64065 | -69.05176 | 35194 ft | 408 kts | 179° |
| 2026-05-04 21:41 | 34.58521 | -69.03738 | 35213 ft | 407 kts | 179° |
| 2026-05-04 21:41 | 34.53018 | -69.02299 | 35218 ft | 406 kts | 179° |
| 2026-05-04 21:42 | 34.47504 | -69.00873 | 35220 ft | 405 kts | 179° |
| 2026-05-04 21:42 | 34.41993 | -68.99440 | 35220 ft | 405 kts | 179° |
| 2026-05-04 21:43 | 34.36488 | -68.98015 | 35172 ft | 404 kts | 178° |
| 2026-05-04 21:43 | 34.30989 | -68.96597 | 35195 ft | 404 kts | 179° |
| 2026-05-04 21:44 | 34.25493 | -68.95178 | 35202 ft | 404 kts | 179° |
| 2026-05-04 21:44 | 34.19992 | -68.93766 | 35208 ft | 403 kts | 179° |
| 2026-05-04 21:45 | 34.14530 | -68.92365 | 35214 ft | 403 kts | 178° |
| 2026-05-04 21:45 | 34.09030 | -68.90943 | 35214 ft | 404 kts | 178° |
| 2026-05-04 21:46 | 34.03531 | -68.89527 | 35213 ft | 403 kts | 178° |
| 2026-05-04 21:46 | 33.98030 | -68.88116 | 35213 ft | 404 kts | 179° |
| 2026-05-04 21:47 | 33.92565 | -68.86728 | 35213 ft | 403 kts | 179° |
| 2026-05-04 21:47 | 33.87082 | -68.85327 | 35176 ft | 399 kts | 179° |
| 2026-05-04 21:48 | 33.81755 | -68.83944 | 35197 ft | 387 kts | 179° |
| 2026-05-04 21:48 | 33.76497 | -68.82598 | 35195 ft | 385 kts | 179° |
| 2026-05-04 21:49 | 33.71254 | -68.81267 | 35197 ft | 385 kts | 180° |
| 2026-05-04 21:49 | 33.66012 | -68.79947 | 35198 ft | 385 kts | 180° |
| 2026-05-04 21:50 | 33.60763 | -68.78618 | 35155 ft | 385 kts | 179° |
| 2026-05-04 21:50 | 33.56397 | -68.77510 | 35166 ft | 386 kts | 179° |
| 2026-05-04 21:51 | 33.51142 | -68.76175 | 35183 ft | 386 kts | 179° |
| 2026-05-04 21:51 | 33.45026 | -68.74623 | 35195 ft | 387 kts | 179° |
| 2026-05-04 21:52 | 33.40614 | -68.73503 | 35191 ft | 387 kts | 179° |
| 2026-05-04 21:52 | 33.35377 | -68.72185 | 35159 ft | 387 kts | 179° |
| 2026-05-04 21:53 | 33.30099 | -68.70863 | 35164 ft | 388 kts | 179° |
| 2026-05-04 21:53 | 33.24798 | -68.69523 | 35168 ft | 389 kts | 179° |
| 2026-05-04 21:54 | 33.19501 | -68.68190 | 35175 ft | 389 kts | 179° |
| 2026-05-04 21:54 | 33.14224 | -68.66860 | 35180 ft | 389 kts | 179° |
| 2026-05-04 21:55 | 33.08924 | -68.65536 | 35147 ft | 390 kts | 179° |
| 2026-05-04 21:55 | 33.03596 | -68.64204 | 35153 ft | 391 kts | 178° |
| 2026-05-04 21:56 | 32.98245 | -68.62856 | 35160 ft | 393 kts | 178° |
| 2026-05-04 21:56 | 32.92921 | -68.61523 | 35167 ft | 393 kts | 178° |
| 2026-05-04 21:57 | 32.87561 | -68.60191 | 35170 ft | 394 kts | 178° |
| 2026-05-04 21:57 | 32.82185 | -68.58845 | 35143 ft | 395 kts | 178° |
| 2026-05-04 21:58 | 32.76803 | -68.57502 | 35153 ft | 396 kts | 178° |
| 2026-05-04 21:58 | 32.71403 | -68.56162 | 35158 ft | 397 kts | 178° |
| 2026-05-04 21:59 | 32.65991 | -68.54818 | 35164 ft | 398 kts | 178° |
| 2026-05-04 21:59 | 32.60573 | -68.53469 | 35171 ft | 398 kts | 178° |
| 2026-05-04 22:00 | 32.55139 | -68.52120 | 35169 ft | 401 kts | 179° |
| 2026-05-04 22:00 | 32.49666 | -68.50769 | 35175 ft | 403 kts | 179° |
| 2026-05-04 22:01 | 32.44144 | -68.49410 | 35181 ft | 405 kts | 179° |
| 2026-05-04 22:01 | 32.38646 | -68.48036 | 35177 ft | 403 kts | 179° |
| 2026-05-04 22:02 | 32.33195 | -68.46673 | 35177 ft | 402 kts | 179° |
| 2026-05-04 22:02 | 32.27716 | -68.45329 | 35173 ft | 403 kts | 179° |
| 2026-05-04 22:03 | 32.22222 | -68.43988 | 35183 ft | 403 kts | 179° |
| 2026-05-04 22:03 | 32.16718 | -68.42635 | 35179 ft | 404 kts | 179° |
| 2026-05-04 22:04 | 32.11207 | -68.41286 | 35180 ft | 404 kts | 179° |
| 2026-05-04 22:04 | 32.05706 | -68.39937 | 35180 ft | 403 kts | 179° |
| 2026-05-04 22:05 | 32.00196 | -68.38593 | 35150 ft | 404 kts | 179° |
| 2026-05-04 22:05 | 31.94726 | -68.37256 | 35161 ft | 404 kts | 179° |
| 2026-05-04 22:06 | 31.89209 | -68.35904 | 35171 ft | 405 kts | 179° |
| 2026-05-04 22:06 | 31.83695 | -68.34547 | 35173 ft | 405 kts | 179° |
| 2026-05-04 22:07 | 31.78174 | -68.33200 | 35186 ft | 405 kts | 179° |
| 2026-05-04 22:07 | 31.72652 | -68.31864 | 35149 ft | 405 kts | 179° |
| 2026-05-04 22:08 | 31.67127 | -68.30522 | 35155 ft | 406 kts | 179° |
| 2026-05-04 22:08 | 31.61591 | -68.29175 | 35164 ft | 406 kts | 179° |
| 2026-05-04 22:09 | 31.56050 | -68.27831 | 35167 ft | 406 kts | 179° |
| 2026-05-04 22:09 | 31.50511 | -68.26495 | 35170 ft | 406 kts | 179° |
| 2026-05-04 22:10 | 31.44970 | -68.25154 | 35172 ft | 406 kts | 179° |
| 2026-05-04 22:10 | 31.39470 | -68.23821 | 35173 ft | 406 kts | 179° |
| 2026-05-04 22:11 | 31.33941 | -68.22487 | 35170 ft | 406 kts | 179° |
| 2026-05-04 22:11 | 31.28402 | -68.21152 | 35172 ft | 406 kts | 179° |
| 2026-05-04 22:12 | 31.22852 | -68.19816 | 35126 ft | 407 kts | 177° |
| 2026-05-04 22:12 | 31.17296 | -68.18486 | 35106 ft | 409 kts | 177° |
| 2026-05-04 22:13 | 31.11701 | -68.17148 | 35117 ft | 411 kts | 177° |
| 2026-05-04 22:13 | 31.06082 | -68.15798 | 35127 ft | 412 kts | 177° |
| 2026-05-04 22:14 | 31.00482 | -68.14457 | 35129 ft | 413 kts | 177° |
| 2026-05-04 22:14 | 30.94839 | -68.13109 | 35113 ft | 414 kts | 176° |
| 2026-05-04 22:15 | 30.89190 | -68.11759 | 35112 ft | 415 kts | 176° |
| 2026-05-04 22:15 | 30.83523 | -68.10405 | 35125 ft | 415 kts | 176° |
| 2026-05-04 22:16 | 30.77858 | -68.09055 | 35143 ft | 415 kts | 176° |
| 2026-05-04 22:16 | 30.72188 | -68.07702 | 35150 ft | 416 kts | 176° |
| 2026-05-04 22:17 | 30.66508 | -68.06349 | 35123 ft | 416 kts | 176° |
| 2026-05-04 22:17 | 30.60831 | -68.04998 | 35136 ft | 416 kts | 176° |
| 2026-05-04 22:18 | 30.55185 | -68.03654 | 35141 ft | 416 kts | 176° |
| 2026-05-04 22:18 | 30.49503 | -68.02310 | 35147 ft | 416 kts | 176° |
| 2026-05-04 22:19 | 30.43824 | -68.00969 | 35145 ft | 416 kts | 176° |
| 2026-05-04 22:19 | 30.38155 | -67.99635 | 35115 ft | 416 kts | 176° |
| 2026-05-04 22:20 | 30.32470 | -67.98281 | 35121 ft | 417 kts | 176° |
| 2026-05-04 22:20 | 30.26771 | -67.96941 | 35130 ft | 417 kts | 177° |
| 2026-05-04 22:21 | 30.21079 | -67.95599 | 35129 ft | 417 kts | 176° |
| 2026-05-04 22:21 | 30.15389 | -67.94262 | 35135 ft | 417 kts | 176° |
| 2026-05-04 22:22 | 30.09697 | -67.92926 | 35111 ft | 417 kts | 177° |
| 2026-05-04 22:22 | 30.03999 | -67.91586 | 35113 ft | 418 kts | 177° |
| 2026-05-04 22:23 | 29.98293 | -67.90244 | 35120 ft | 418 kts | 177° |
| 2026-05-04 22:23 | 29.92624 | -67.88917 | 35114 ft | 418 kts | 177° |
| 2026-05-04 22:24 | 29.86915 | -67.87577 | 35082 ft | 419 kts | 176° |
| 2026-05-04 22:24 | 29.81198 | -67.86240 | 35082 ft | 419 kts | 176° |
| 2026-05-04 22:25 | 29.75473 | -67.84903 | 35091 ft | 420 kts | 176° |
| 2026-05-04 22:25 | 29.69735 | -67.83567 | 35099 ft | 420 kts | 176° |
| 2026-05-04 22:26 | 29.64001 | -67.82237 | 35108 ft | 420 kts | 176° |
| 2026-05-04 22:26 | 29.58260 | -67.80904 | 35080 ft | 421 kts | 176° |
| 2026-05-04 22:27 | 29.52518 | -67.79569 | 35081 ft | 421 kts | 176° |
| 2026-05-04 22:27 | 29.46755 | -67.78226 | 35090 ft | 422 kts | 176° |
| 2026-05-04 22:28 | 29.40992 | -67.76890 | 35089 ft | 422 kts | 176° |
| 2026-05-04 22:28 | 29.35226 | -67.75559 | 35101 ft | 422 kts | 176° |
| 2026-05-04 22:29 | 29.29497 | -67.74242 | 35075 ft | 423 kts | 176° |
| 2026-05-04 22:29 | 29.23714 | -67.72898 | 35072 ft | 424 kts | 176° |
| 2026-05-04 22:30 | 29.18903 | -67.71780 | 35086 ft | 424 kts | 176° |
| 2026-05-04 22:30 | 29.13100 | -67.70449 | 35092 ft | 425 kts | 176° |
| 2026-05-04 22:31 | 29.07299 | -67.69115 | 35103 ft | 425 kts | 176° |
| 2026-05-04 22:31 | 29.01486 | -67.67773 | 35072 ft | 425 kts | 175° |
| 2026-05-04 22:32 | 28.95665 | -67.66437 | 35080 ft | 426 kts | 175° |
| 2026-05-04 22:32 | 28.89845 | -67.65100 | 35088 ft | 427 kts | 175° |
| 2026-05-04 22:33 | 28.84017 | -67.63762 | 35097 ft | 427 kts | 175° |
| 2026-05-04 22:33 | 28.78220 | -67.62446 | 35104 ft | 427 kts | 175° |
| 2026-05-04 22:34 | 28.72381 | -67.61114 | 35106 ft | 428 kts | 175° |
| 2026-05-04 22:34 | 28.66542 | -67.59779 | 35108 ft | 428 kts | 175° |
| 2026-05-04 22:35 | 28.60709 | -67.58452 | 35109 ft | 428 kts | 175° |
| 2026-05-04 22:35 | 28.54874 | -67.57121 | 35108 ft | 428 kts | 175° |
| 2026-05-04 22:36 | 28.49019 | -67.55786 | 35108 ft | 428 kts | 175° |
| 2026-05-04 22:36 | 28.43172 | -67.54457 | 35065 ft | 429 kts | 175° |
| 2026-05-04 22:37 | 28.37297 | -67.53129 | 35054 ft | 432 kts | 175° |
| 2026-05-04 22:37 | 28.31420 | -67.51794 | 35056 ft | 434 kts | 175° |
| 2026-05-04 22:38 | 28.25490 | -67.50447 | 35064 ft | 435 kts | 175° |
| 2026-05-04 22:38 | 28.19539 | -67.49096 | 35071 ft | 435 kts | 175° |
| 2026-05-04 22:39 | 28.13585 | -67.47755 | 35047 ft | 437 kts | 175° |
| 2026-05-04 22:39 | 28.07640 | -67.46419 | 35056 ft | 438 kts | 174° |
| 2026-05-04 22:40 | 28.01627 | -67.45057 | 35060 ft | 439 kts | 174° |
| 2026-05-04 22:40 | 27.95665 | -67.43705 | 35618 ft | 432 kts | 175° |
| 2026-05-04 22:40 | 27.92732 | -67.43037 | 36023 ft | 428 kts | 175° |
| 2026-05-04 22:41 | 27.89854 | -67.42386 | 36345 ft | 425 kts | 175° |
| 2026-05-04 22:41 | 27.86945 | -67.41730 | 36530 ft | 426 kts | 175° |
| 2026-05-04 22:41 | 27.84033 | -67.41078 | 36701 ft | 427 kts | 175° |
| 2026-05-04 22:41 | 27.81121 | -67.40431 | 36911 ft | 427 kts | 175° |
| 2026-05-04 22:42 | 27.78201 | -67.39785 | 37050 ft | 427 kts | 175° |
| 2026-05-04 22:42 | 27.72356 | -67.38482 | 37070 ft | 426 kts | 175° |
| 2026-05-04 22:43 | 27.66536 | -67.37173 | 37070 ft | 426 kts | 175° |
| 2026-05-04 22:43 | 27.60744 | -67.35865 | 37049 ft | 427 kts | 175° |
| 2026-05-04 22:44 | 27.54878 | -67.34550 | 37070 ft | 431 kts | 175° |
| 2026-05-04 22:44 | 27.48983 | -67.33240 | 37074 ft | 432 kts | 175° |
| 2026-05-04 22:45 | 27.43074 | -67.31930 | 37079 ft | 433 kts | 175° |
| 2026-05-04 22:45 | 27.34254 | -67.29957 | 37092 ft | 433 kts | 175° |
| 2026-05-04 22:46 | 27.28329 | -67.28641 | 37063 ft | 434 kts | 176° |
| 2026-05-04 22:46 | 27.22384 | -67.27323 | 37068 ft | 435 kts | 176° |
| 2026-05-04 22:47 | 27.16451 | -67.26000 | 37074 ft | 436 kts | 176° |
| 2026-05-04 22:47 | 27.10486 | -67.24674 | 37085 ft | 436 kts | 176° |
| 2026-05-04 22:48 | 27.04521 | -67.23357 | 37088 ft | 437 kts | 176° |
| 2026-05-04 22:48 | 26.98593 | -67.22051 | 37077 ft | 437 kts | 177° |
| 2026-05-04 22:49 | 26.92631 | -67.20735 | 37076 ft | 437 kts | 177° |
| 2026-05-04 22:49 | 26.86646 | -67.19413 | 37091 ft | 438 kts | 177° |
| 2026-05-04 22:50 | 26.80663 | -67.18090 | 37091 ft | 438 kts | 177° |
| 2026-05-04 22:50 | 26.74675 | -67.16769 | 37092 ft | 438 kts | 177° |
| 2026-05-04 22:51 | 26.68669 | -67.15446 | 37080 ft | 439 kts | 178° |
| 2026-05-04 22:51 | 26.62709 | -67.14141 | 37092 ft | 439 kts | 178° |
| 2026-05-04 22:52 | 26.56701 | -67.12823 | 37090 ft | 440 kts | 178° |
| 2026-05-04 22:52 | 26.50699 | -67.11505 | 37096 ft | 440 kts | 178° |
| 2026-05-04 22:53 | 26.44688 | -67.10189 | 37061 ft | 440 kts | 178° |
| 2026-05-04 22:53 | 26.38671 | -67.08874 | 37068 ft | 441 kts | 178° |
| 2026-05-04 22:54 | 26.32628 | -67.07556 | 37081 ft | 442 kts | 178° |
| 2026-05-04 22:54 | 26.26594 | -67.06238 | 37090 ft | 442 kts | 178° |
| 2026-05-04 22:55 | 26.20542 | -67.04916 | 37091 ft | 443 kts | 178° |
| 2026-05-04 22:55 | 26.14491 | -67.03592 | 37083 ft | 443 kts | 177° |
| 2026-05-04 22:56 | 26.08433 | -67.02276 | 37080 ft | 444 kts | 178° |
| 2026-05-04 22:56 | 26.02399 | -67.00972 | 37091 ft | 444 kts | 178° |
| 2026-05-04 22:57 | 25.96320 | -66.99650 | 37100 ft | 445 kts | 177° |
| 2026-05-04 22:57 | 25.90232 | -66.98317 | 37103 ft | 445 kts | 177° |
| 2026-05-04 22:58 | 25.84151 | -66.96988 | 37105 ft | 445 kts | 177° |
| 2026-05-04 22:58 | 25.78064 | -66.95669 | 37106 ft | 445 kts | 178° |
| 2026-05-04 22:59 | 25.71970 | -66.94362 | 37104 ft | 446 kts | 177° |
| 2026-05-04 22:59 | 25.65881 | -66.93048 | 37101 ft | 446 kts | 177° |
| 2026-05-04 23:00 | 25.59823 | -66.91732 | 37103 ft | 446 kts | 177° |
| 2026-05-04 23:00 | 25.53733 | -66.90417 | 37078 ft | 446 kts | 177° |
| 2026-05-04 23:01 | 25.47624 | -66.89109 | 37075 ft | 447 kts | 177° |
| 2026-05-04 23:01 | 25.41511 | -66.87795 | 37085 ft | 447 kts | 177° |
| 2026-05-04 23:02 | 25.35393 | -66.86478 | 37093 ft | 448 kts | 177° |
| 2026-05-04 23:02 | 25.29272 | -66.85165 | 37098 ft | 448 kts | 177° |
| 2026-05-04 23:03 | 25.23133 | -66.83839 | 37068 ft | 449 kts | 177° |
| 2026-05-04 23:03 | 25.17031 | -66.82532 | 37079 ft | 450 kts | 177° |
| 2026-05-04 23:04 | 25.10874 | -66.81215 | 37086 ft | 451 kts | 177° |
| 2026-05-04 23:04 | 25.04707 | -66.79898 | 37093 ft | 451 kts | 177° |
| 2026-05-04 23:05 | 24.98528 | -66.78589 | 37103 ft | 452 kts | 177° |
| 2026-05-04 23:05 | 24.92354 | -66.77276 | 37086 ft | 452 kts | 176° |
| 2026-05-04 23:06 | 24.86159 | -66.75949 | 37097 ft | 453 kts | 176° |
| 2026-05-04 23:06 | 24.79975 | -66.74625 | 37100 ft | 453 kts | 176° |
| 2026-05-04 23:07 | 24.73774 | -66.73303 | 37105 ft | 453 kts | 176° |
| 2026-05-04 23:07 | 24.67620 | -66.71988 | 37107 ft | 453 kts | 176° |
| 2026-05-04 23:08 | 24.61416 | -66.70671 | 37095 ft | 454 kts | 176° |
| 2026-05-04 23:08 | 24.55204 | -66.69356 | 37099 ft | 454 kts | 176° |
| 2026-05-04 23:09 | 24.48986 | -66.68035 | 37104 ft | 455 kts | 176° |
| 2026-05-04 23:09 | 24.42771 | -66.66715 | 37106 ft | 455 kts | 176° |
| 2026-05-04 23:10 | 24.36552 | -66.65404 | 37083 ft | 455 kts | 176° |
| 2026-05-04 23:10 | 24.30334 | -66.64095 | 37089 ft | 455 kts | 176° |
| 2026-05-04 23:11 | 24.25148 | -66.63005 | 37097 ft | 456 kts | 176° |
| 2026-05-04 23:11 | 24.17903 | -66.61483 | 37104 ft | 456 kts | 176° |
| 2026-05-04 23:12 | 24.12707 | -66.60387 | 37105 ft | 456 kts | 176° |
| 2026-05-04 23:12 | 24.06432 | -66.59056 | 37093 ft | 456 kts | 176° |
| 2026-05-04 23:13 | 24.00193 | -66.57740 | 37101 ft | 457 kts | 176° |
| 2026-05-04 23:13 | 23.93980 | -66.56445 | 37094 ft | 457 kts | 175° |
| 2026-05-04 23:14 | 23.87719 | -66.55125 | 37105 ft | 458 kts | 175° |
| 2026-05-04 23:14 | 23.81453 | -66.53805 | 37117 ft | 458 kts | 175° |
| 2026-05-04 23:15 | 23.75196 | -66.52496 | 37094 ft | 458 kts | 175° |
| 2026-05-04 23:15 | 23.68927 | -66.51191 | 37107 ft | 458 kts | 175° |
| 2026-05-04 23:16 | 23.62691 | -66.49891 | 37113 ft | 459 kts | 175° |
| 2026-05-04 23:16 | 23.56423 | -66.48578 | 37113 ft | 459 kts | 175° |
| 2026-05-04 23:17 | 23.50127 | -66.47260 | 37118 ft | 459 kts | 175° |
| 2026-05-04 23:17 | 23.43842 | -66.45952 | 37094 ft | 459 kts | 175° |
| 2026-05-04 23:18 | 23.37556 | -66.44652 | 37103 ft | 460 kts | 175° |
| 2026-05-04 23:18 | 23.31261 | -66.43339 | 37101 ft | 460 kts | 175° |
| 2026-05-04 23:19 | 23.24973 | -66.42021 | 37111 ft | 460 kts | 175° |
| 2026-05-04 23:19 | 23.18714 | -66.40720 | 37114 ft | 461 kts | 175° |
| 2026-05-04 23:20 | 23.12413 | -66.39419 | 37102 ft | 461 kts | 175° |
| 2026-05-04 23:20 | 23.06108 | -66.38115 | 37107 ft | 461 kts | 175° |
| 2026-05-04 23:21 | 22.99801 | -66.36813 | 37110 ft | 461 kts | 175° |
| 2026-05-04 23:21 | 22.93490 | -66.35505 | 37113 ft | 461 kts | 175° |
| 2026-05-04 23:22 | 22.87172 | -66.34195 | 37118 ft | 462 kts | 175° |
| 2026-05-04 23:22 | 22.80855 | -66.32890 | 37119 ft | 461 kts | 175° |
| 2026-05-04 23:23 | 22.74572 | -66.31601 | 37117 ft | 462 kts | 175° |
| 2026-05-04 23:23 | 22.68247 | -66.30295 | 37116 ft | 462 kts | 175° |
| 2026-05-04 23:24 | 22.61931 | -66.28988 | 37113 ft | 462 kts | 175° |
| 2026-05-04 23:24 | 22.55618 | -66.27683 | 37113 ft | 462 kts | 175° |
| 2026-05-04 23:25 | 22.49342 | -66.26396 | 37098 ft | 462 kts | 175° |
| 2026-05-04 23:25 | 22.43019 | -66.25099 | 37104 ft | 462 kts | 175° |
| 2026-05-04 23:26 | 22.36686 | -66.23813 | 37105 ft | 463 kts | 174° |
| 2026-05-04 23:26 | 22.30361 | -66.22514 | 37108 ft | 463 kts | 174° |
| 2026-05-04 23:27 | 22.24018 | -66.21214 | 37108 ft | 463 kts | 174° |
| 2026-05-04 23:27 | 22.17676 | -66.19916 | 37097 ft | 463 kts | 174° |
| 2026-05-04 23:28 | 22.11368 | -66.18624 | 37106 ft | 463 kts | 174° |
| 2026-05-04 23:28 | 22.05027 | -66.17327 | 37110 ft | 464 kts | 174° |
| 2026-05-04 23:29 | 21.98684 | -66.16032 | 37113 ft | 464 kts | 174° |
| 2026-05-04 23:29 | 21.92353 | -66.14743 | 37117 ft | 464 kts | 174° |
| 2026-05-04 23:30 | 21.85998 | -66.13448 | 37106 ft | 464 kts | 174° |
| 2026-05-04 23:30 | 21.79650 | -66.12157 | 37104 ft | 464 kts | 174° |
| 2026-05-04 23:31 | 21.73332 | -66.10877 | 37105 ft | 464 kts | 174° |
| 2026-05-04 23:31 | 21.66968 | -66.09588 | 37111 ft | 464 kts | 174° |
| 2026-05-04 23:32 | 21.60618 | -66.08299 | 37091 ft | 464 kts | 174° |
| 2026-05-04 23:32 | 21.54267 | -66.07009 | 37093 ft | 465 kts | 174° |
| 2026-05-04 23:33 | 21.47941 | -66.05511 | 37097 ft | 470 kts | 165° |
| 2026-05-04 23:33 | 21.42148 | -66.02265 | 37095 ft | 479 kts | 146° |
| 2026-05-04 23:34 | 21.36805 | -65.97963 | 37099 ft | 480 kts | 147° |
| 2026-05-04 23:34 | 21.31425 | -65.93697 | 37098 ft | 480 kts | 147° |
| 2026-05-04 23:35 | 21.26047 | -65.89436 | 37080 ft | 481 kts | 147° |
| 2026-05-04 23:35 | 21.20665 | -65.85164 | 37086 ft | 481 kts | 147° |
| 2026-05-04 23:36 | 21.15306 | -65.80917 | 37092 ft | 482 kts | 147° |
| 2026-05-04 23:36 | 21.09909 | -65.76643 | 37097 ft | 482 kts | 147° |
| 2026-05-04 23:37 | 21.04507 | -65.72365 | 37105 ft | 482 kts | 147° |
| 2026-05-04 23:37 | 20.99109 | -65.68096 | 37104 ft | 482 kts | 147° |
| 2026-05-04 23:38 | 20.93718 | -65.63833 | 37109 ft | 482 kts | 147° |
| 2026-05-04 23:38 | 20.88347 | -65.59586 | 37099 ft | 483 kts | 146° |
| 2026-05-04 23:39 | 20.82932 | -65.55318 | 37100 ft | 483 kts | 147° |
| 2026-05-04 23:39 | 20.77515 | -65.51054 | 37103 ft | 483 kts | 146° |
| 2026-05-04 23:40 | 20.72096 | -65.46784 | 37109 ft | 483 kts | 146° |
| 2026-05-04 23:40 | 20.66675 | -65.42520 | 37107 ft | 483 kts | 146° |
| 2026-05-04 23:41 | 20.61263 | -65.38262 | 37113 ft | 484 kts | 146° |
| 2026-05-04 23:41 | 20.55844 | -65.33998 | 37111 ft | 484 kts | 146° |
| 2026-05-04 23:42 | 20.50416 | -65.29744 | 37109 ft | 484 kts | 147° |
| 2026-05-04 23:42 | 20.45008 | -65.25515 | 37105 ft | 485 kts | 146° |
| 2026-05-04 23:43 | 20.39565 | -65.21253 | 37112 ft | 485 kts | 146° |
| 2026-05-04 23:43 | 20.34120 | -65.16985 | 37114 ft | 485 kts | 146° |
| 2026-05-04 23:44 | 20.28668 | -65.12728 | 37113 ft | 485 kts | 146° |
| 2026-05-04 23:44 | 20.23217 | -65.08482 | 37109 ft | 485 kts | 146° |
| 2026-05-04 23:45 | 20.17791 | -65.04232 | 37114 ft | 486 kts | 146° |
| 2026-05-04 23:45 | 20.12337 | -64.99968 | 37110 ft | 486 kts | 146° |
| 2026-05-04 23:46 | 20.06877 | -64.95718 | 37114 ft | 486 kts | 146° |
| 2026-05-04 23:46 | 20.01444 | -64.91503 | 37106 ft | 486 kts | 146° |
| 2026-05-04 23:47 | 19.95985 | -64.87257 | 37109 ft | 486 kts | 146° |
| 2026-05-04 23:47 | 19.90530 | -64.83014 | 37109 ft | 486 kts | 146° |
| 2026-05-04 23:48 | 19.85068 | -64.78773 | 37105 ft | 486 kts | 146° |
| 2026-05-04 23:48 | 19.79608 | -64.74537 | 37109 ft | 486 kts | 146° |
| 2026-05-04 23:49 | 19.74150 | -64.70313 | 37112 ft | 487 kts | 146° |
| 2026-05-04 23:49 | 19.68678 | -64.66075 | 37113 ft | 486 kts | 146° |
| 2026-05-04 23:50 | 19.63206 | -64.61839 | 37113 ft | 486 kts | 146° |
| 2026-05-04 23:50 | 19.57735 | -64.57613 | 37112 ft | 486 kts | 146° |
| 2026-05-04 23:51 | 19.52260 | -64.53393 | 37112 ft | 486 kts | 146° |
| 2026-05-04 23:51 | 19.46819 | -64.49194 | 37111 ft | 486 kts | 146° |
| 2026-05-04 23:52 | 19.41344 | -64.44967 | 37110 ft | 486 kts | 146° |
| 2026-05-04 23:52 | 19.35879 | -64.40750 | 37109 ft | 486 kts | 146° |
| 2026-05-04 23:53 | 19.30435 | -64.36561 | 37108 ft | 485 kts | 146° |
| 2026-05-04 23:53 | 19.24963 | -64.32351 | 37105 ft | 485 kts | 146° |
| 2026-05-04 23:54 | 19.19488 | -64.28154 | 36757 ft | 485 kts | 145° |
| 2026-05-04 23:54 | 19.17680 | -64.26769 | 36601 ft | 484 kts | 145° |
| 2026-05-04 23:54 | 19.14961 | -64.24684 | 36189 ft | 483 kts | 145° |
| 2026-05-04 23:55 | 19.12234 | -64.22588 | 35450 ft | 485 kts | 145° |
| 2026-05-04 23:55 | 19.08595 | -64.19791 | 34357 ft | 489 kts | 145° |
| 2026-05-04 23:55 | 19.03086 | -64.15572 | 32460 ft | 482 kts | 145° |
| 2026-05-04 23:56 | 19.01260 | -64.14173 | 31837 ft | 477 kts | 144° |
| 2026-05-04 23:56 | 18.98625 | -64.12151 | 30921 ft | 471 kts | 144° |
| 2026-05-04 23:56 | 18.95992 | -64.10131 | 29962 ft | 464 kts | 144° |
| 2026-05-04 23:56 | 18.93387 | -64.08137 | 28890 ft | 458 kts | 144° |
| 2026-05-04 23:57 | 18.90823 | -64.06178 | 27843 ft | 453 kts | 144° |
| 2026-05-04 23:57 | 18.88271 | -64.04228 | 26794 ft | 451 kts | 144° |
| 2026-05-04 23:57 | 18.85728 | -64.02287 | 25694 ft | 453 kts | 144° |
| 2026-05-04 23:57 | 18.83155 | -64.00323 | 24596 ft | 459 kts | 144° |
| 2026-05-04 23:58 | 18.80560 | -63.98343 | 23513 ft | 463 kts | 144° |
| 2026-05-04 23:58 | 18.77950 | -63.96350 | 22487 ft | 461 kts | 145° |
| 2026-05-04 23:58 | 18.75379 | -63.94387 | 21635 ft | 457 kts | 146° |
| 2026-05-04 23:58 | 18.72805 | -63.92423 | 20760 ft | 455 kts | 145° |
| 2026-05-04 23:59 | 18.70241 | -63.90463 | 19869 ft | 455 kts | 145° |
| 2026-05-04 23:59 | 18.67670 | -63.88501 | 18996 ft | 454 kts | 145° |
| 2026-05-04 23:59 | 18.65134 | -63.86570 | 18082 ft | 454 kts | 146° |
| 2026-05-04 23:59 | 18.62569 | -63.84617 | 17092 ft | 454 kts | 145° |
| 2026-05-05 00:00 | 18.60006 | -63.82670 | 16248 ft | 450 kts | 146° |
| 2026-05-05 00:00 | 18.58333 | -63.81400 | 15672 ft | 448 kts | 145° |
| 2026-05-05 00:00 | 18.54967 | -63.78845 | 14734 ft | 439 kts | 145° |
| 2026-05-05 00:00 | 18.52527 | -63.76988 | 13866 ft | 425 kts | 145° |
| 2026-05-05 00:01 | 18.50195 | -63.75212 | 12959 ft | 409 kts | 144° |
| 2026-05-05 00:01 | 18.47948 | -63.73501 | 12312 ft | 388 kts | 144° |
| 2026-05-05 00:01 | 18.45858 | -63.71818 | 11729 ft | 374 kts | 139° |
| 2026-05-05 00:01 | 18.43881 | -63.69964 | 11455 ft | 389 kts | 138° |
| 2026-05-05 00:02 | 18.41862 | -63.68044 | 10945 ft | 388 kts | 138° |
| 2026-05-05 00:02 | 18.39909 | -63.66169 | 10809 ft | 370 kts | 138° |
| 2026-05-05 00:02 | 18.38079 | -63.64408 | 10685 ft | 342 kts | 138° |
| 2026-05-05 00:02 | 18.36393 | -63.62789 | 10560 ft | 316 kts | 138° |
| 2026-05-05 00:03 | 18.34808 | -63.61270 | 10273 ft | 300 kts | 138° |
| 2026-05-05 00:03 | 18.33273 | -63.59802 | 10045 ft | 296 kts | 138° |
| 2026-05-05 00:03 | 18.31771 | -63.58366 | 9914 ft | 295 kts | 138° |
| 2026-05-05 00:03 | 18.30256 | -63.56918 | 9787 ft | 294 kts | 138° |
| 2026-05-05 00:04 | 18.28739 | -63.55473 | 9671 ft | 293 kts | 138° |
| 2026-05-05 00:04 | 18.27229 | -63.54040 | 9535 ft | 291 kts | 138° |
| 2026-05-05 00:04 | 18.25729 | -63.52613 | 9414 ft | 290 kts | 138° |
| 2026-05-05 00:04 | 18.24240 | -63.51191 | 9254 ft | 289 kts | 138° |
| 2026-05-05 00:05 | 18.22753 | -63.49772 | 8900 ft | 288 kts | 137° |
| 2026-05-05 00:05 | 18.21270 | -63.48361 | 8545 ft | 287 kts | 137° |
| 2026-05-05 00:05 | 18.19800 | -63.46965 | 8232 ft | 283 kts | 137° |
| 2026-05-05 00:05 | 18.18335 | -63.45572 | 7947 ft | 281 kts | 137° |
| 2026-05-05 00:06 | 18.16901 | -63.44208 | 7558 ft | 277 kts | 137° |
| 2026-05-05 00:06 | 18.15474 | -63.42846 | 7068 ft | 275 kts | 137° |
| 2026-05-05 00:06 | 18.14071 | -63.41506 | 6691 ft | 270 kts | 137° |
| 2026-05-05 00:06 | 18.12688 | -63.40188 | 6310 ft | 267 kts | 137° |
| 2026-05-05 00:07 | 18.11307 | -63.38874 | 5944 ft | 268 kts | 137° |
| 2026-05-05 00:07 | 18.09920 | -63.37557 | 5584 ft | 268 kts | 137° |
| 2026-05-05 00:07 | 18.08553 | -63.36258 | 5223 ft | 268 kts | 137° |
| 2026-05-05 00:07 | 18.07165 | -63.34939 | 4830 ft | 270 kts | 137° |
| 2026-05-05 00:08 | 18.05566 | -63.33899 | 4356 ft | 275 kts | 161° |
| 2026-05-05 00:08 | 18.03688 | -63.33714 | 3890 ft | 269 kts | 182° |
| 2026-05-05 00:08 | 18.01849 | -63.33938 | 3431 ft | 263 kts | 185° |
| 2026-05-05 00:08 | 18.00086 | -63.33880 | 3155 ft | 244 kts | 158° |
| 2026-05-05 00:09 | 17.98852 | -63.32846 | 3106 ft | 222 kts | 119° |
| 2026-05-05 00:09 | 17.98606 | -63.31300 | 2995 ft | 217 kts | 79° |
| 2026-05-05 00:09 | 17.99122 | -63.29819 | 2746 ft | 216 kts | 70° |
| 2026-05-05 00:09 | 17.99971 | -63.28521 | 2476 ft | 219 kts | 49° |
| 2026-05-05 00:10 | 18.01054 | -63.27393 | 2170 ft | 218 kts | 52° |
| 2026-05-05 00:10 | 18.01791 | -63.26191 | 2025 ft | 205 kts | 71° |
| 2026-05-05 00:10 | 18.02112 | -63.24787 | 1909 ft | 193 kts | 85° |
| 2026-05-05 00:10 | 18.02310 | -63.23405 | 1818 ft | 186 kts | 83° |
| 2026-05-05 00:11 | 18.02499 | -63.22115 | 1739 ft | 173 kts | 83° |
| 2026-05-05 00:11 | 18.02674 | -63.20909 | 1686 ft | 159 kts | 85° |
| 2026-05-05 00:11 | 18.02836 | -63.19793 | 1554 ft | 153 kts | 84° |
| 2026-05-05 00:11 | 18.02939 | -63.19070 | 1400 ft | 148 kts | 85° |
| 2026-05-05 00:12 | 18.02954 | -63.18963 | 1381 ft | 147 kts | 85° |
| 2026-05-05 00:12 | 18.03079 | -63.18093 | 1221 ft | 141 kts | 84° |
| 2026-05-05 00:12 | 18.03224 | -63.17086 | 1058 ft | 138 kts | 84° |
| 2026-05-05 00:13 | 18.03364 | -63.16099 | 862 ft | 136 kts | 84° |
| 2026-05-05 00:13 | 18.03508 | -63.15102 | 688 ft | 138 kts | 86° |
| 2026-05-05 00:13 | 18.03665 | -63.14110 | 561 ft | 138 kts | 84° |
| 2026-05-05 00:13 | 18.03780 | -63.13102 | 327 ft | 138 kts | 84° |
| 2026-05-05 00:14 | 18.03926 | -63.12094 | 102 ft | 139 kts | 83° |
| 2026-05-05 00:14 | 18.04054 | -63.11143 | 28 ft | 113 kts | 81° |
| 2026-05-05 00:14 | 18.04142 | -63.10566 | 28 ft | 68 kts | 83° |
| 2026-05-05 00:14 | 18.04204 | -63.10107 | 27 ft | 45 kts | 81° |
| 2026-05-05 00:15 | 18.04248 | -63.09854 | 27 ft | 21 kts | 56° |
| 2026-05-05 00:15 | 18.04263 | -63.09911 | 27 ft | 15 kts | 232° |
| 2026-05-05 00:15 | 18.04219 | -63.10017 | 27 ft | 17 kts | 263° |
| 2026-05-05 00:15 | 18.04198 | -63.10148 | 27 ft | 19 kts | 261° |
| 2026-05-05 00:16 | 18.04177 | -63.10296 | 27 ft | 22 kts | 262° |
| 2026-05-05 00:16 | 18.04155 | -63.10457 | 28 ft | 19 kts | 261° |
| 2026-05-05 00:16 | 18.04134 | -63.10605 | 28 ft | 22 kts | 261° |
| 2026-05-05 00:16 | 18.04110 | -63.10768 | 27 ft | 24 kts | 261° |
| 2026-05-05 00:17 | 18.04082 | -63.10950 | 28 ft | 26 kts | 262° |
| 2026-05-05 00:17 | 18.04057 | -63.11151 | 28 ft | 34 kts | 262° |
| 2026-05-05 00:17 | 18.04115 | -63.11307 | 28 ft | 9 kts | 354° |
| 2026-05-05 00:17 | 18.04164 | -63.11305 | 28 ft | 3 kts | 354° |
| 2026-05-05 00:18 | 18.04190 | -63.11308 | 28 ft | 5 kts | 353° |
| 2026-05-05 00:18 | 18.04213 | -63.11311 | 29 ft | 2 kts | 352° |
| 2026-05-05 00:18 | 18.04237 | -63.11312 | 29 ft | 4 kts | 2° |
| 2026-05-05 00:18 | 18.04261 | -63.11288 | 29 ft | 6 kts | 57° |
| 2026-05-05 00:19 | 18.04287 | -63.11243 | 29 ft | 8 kts | 62° |
| 2026-05-05 00:19 | 18.04327 | -63.11218 | 29 ft | 7 kts | 334° |
| 2026-05-05 00:19 | 18.04347 | -63.11227 | 29 ft | 1 kts | 348° |
| 2026-05-05 00:19 | 18.04349 | -63.11227 | 29 ft | 0 kts | 349° |